createdAt,value
2022-10-12T00:00:49.079Z,1028.59
2022-10-12T00:01:49.298Z,1028.59
2022-10-12T00:02:49.428Z,1028.63
2022-10-12T00:03:49.589Z,1028.63
2022-10-12T00:04:49.750Z,1028.61
2022-10-12T00:05:49.920Z,1028.61
2022-10-12T00:06:50.087Z,1028.59
2022-10-12T00:07:50.260Z,1028.64
2022-10-12T00:08:50.416Z,1028.64
2022-10-12T00:09:50.599Z,1028.65
2022-10-12T00:10:50.759Z,1028.64
2022-10-12T00:11:50.928Z,1028.64
2022-10-12T00:12:51.122Z,1028.64
2022-10-12T00:13:51.267Z,1028.65
2022-10-12T00:14:51.438Z,1028.69
2022-10-12T00:15:51.605Z,1028.70
2022-10-12T00:16:51.798Z,1028.70
2022-10-12T00:17:51.986Z,1028.69
2022-10-12T00:18:52.147Z,1028.70
2022-10-12T00:19:52.319Z,1028.68
2022-10-12T00:20:52.498Z,1028.67
2022-10-12T00:21:52.678Z,1028.68
2022-10-12T00:22:52.875Z,1028.66
2022-10-12T00:23:53.031Z,1028.67
2022-10-12T00:24:53.234Z,1028.67
2022-10-12T00:25:53.378Z,1028.68
2022-10-12T00:26:53.553Z,1028.62
2022-10-12T00:27:53.758Z,1028.64
2022-10-12T00:28:53.942Z,1028.64
2022-10-12T00:29:54.060Z,1028.63
2022-10-12T00:30:54.262Z,1028.60
2022-10-12T00:31:54.407Z,1028.64
2022-10-12T00:32:54.610Z,1028.63
2022-10-12T00:33:54.750Z,1028.64
2022-10-12T00:34:54.919Z,1028.69
2022-10-12T00:35:55.077Z,1028.66
2022-10-12T00:36:55.248Z,1028.62
2022-10-12T00:37:55.467Z,1028.66
2022-10-12T00:38:55.584Z,1028.63
2022-10-12T00:39:55.736Z,1028.67
2022-10-12T00:40:55.902Z,1028.62
2022-10-12T00:41:56.067Z,1028.61
2022-10-12T00:42:56.245Z,1028.64
2022-10-12T00:43:58.605Z,1028.62
2022-10-12T00:44:56.605Z,1028.68
2022-10-12T00:45:56.766Z,1028.64
2022-10-12T00:46:56.925Z,1028.66
2022-10-12T00:47:57.122Z,1028.65
2022-10-12T00:48:57.287Z,1028.66
2022-10-12T00:49:57.454Z,1028.63
2022-10-12T00:50:57.617Z,1028.64
2022-10-12T00:51:57.775Z,1028.66
2022-10-12T00:52:57.955Z,1028.66
2022-10-12T00:53:58.127Z,1028.69
2022-10-12T00:54:58.304Z,1028.69
2022-10-12T00:55:58.457Z,1028.71
2022-10-12T00:56:58.655Z,1028.70
2022-10-12T00:57:58.835Z,1028.69
2022-10-12T00:58:59.015Z,1028.71
2022-10-12T00:59:59.176Z,1028.70
2022-10-12T01:00:59.443Z,1028.71
2022-10-12T01:01:59.545Z,1028.74
2022-10-12T01:02:59.717Z,1028.73
2022-10-12T01:03:59.874Z,1028.74
2022-10-12T01:05:00.035Z,1028.71
2022-10-12T01:06:00.185Z,1028.69
2022-10-12T01:07:00.354Z,1028.73
2022-10-12T01:08:00.535Z,1028.74
2022-10-12T01:09:00.694Z,1028.71
2022-10-12T01:10:00.891Z,1028.71
2022-10-12T01:11:01.073Z,1028.72
2022-10-12T01:12:01.232Z,1028.71
2022-10-12T01:13:01.437Z,1028.70
2022-10-12T01:14:01.597Z,1028.72
2022-10-12T01:15:01.759Z,1028.70
2022-10-12T01:16:01.934Z,1028.70
2022-10-12T01:17:02.125Z,1028.65
2022-10-12T01:18:02.322Z,1028.72
2022-10-12T01:19:02.487Z,1028.68
2022-10-12T01:20:02.640Z,1028.72
2022-10-12T01:21:02.830Z,1028.70
2022-10-12T01:22:03.019Z,1028.73
2022-10-12T01:23:03.213Z,1028.73
2022-10-12T01:24:03.367Z,1028.72
2022-10-12T01:25:03.563Z,1028.75
2022-10-12T01:26:03.713Z,1028.76
2022-10-12T01:27:03.882Z,1028.73
2022-10-12T01:28:04.062Z,1028.75
2022-10-12T01:29:04.214Z,1028.72
2022-10-12T01:30:04.403Z,1028.73
2022-10-12T01:31:04.593Z,1028.76
2022-10-12T01:32:04.751Z,1028.78
2022-10-12T01:33:04.958Z,1028.77
2022-10-12T01:34:05.103Z,1028.77
2022-10-12T01:35:05.294Z,1028.79
2022-10-12T01:36:05.482Z,1028.81
2022-10-12T01:37:05.650Z,1028.78
2022-10-12T01:38:05.841Z,1028.80
2022-10-12T01:39:06.012Z,1028.78
2022-10-12T01:40:06.163Z,1028.83
2022-10-12T01:41:06.352Z,1028.81
2022-10-12T01:42:06.542Z,1028.76
2022-10-12T01:43:06.716Z,1028.77
2022-10-12T01:44:06.892Z,1028.81
2022-10-12T01:45:07.053Z,1028.82
2022-10-12T01:46:07.241Z,1028.81
2022-10-12T01:47:07.432Z,1028.85
2022-10-12T01:48:07.602Z,1028.84
2022-10-12T01:49:07.750Z,1028.81
2022-10-12T01:50:07.941Z,1028.80
2022-10-12T01:51:08.092Z,1028.80
2022-10-12T01:52:08.260Z,1028.81
2022-10-12T01:53:08.430Z,1028.78
2022-10-12T01:54:08.611Z,1028.75
2022-10-12T01:55:08.759Z,1028.78
2022-10-12T01:56:08.951Z,1028.81
2022-10-12T01:57:09.099Z,1028.80
2022-10-12T01:58:09.322Z,1028.84
2022-10-12T01:59:09.470Z,1028.82
2022-10-12T02:00:09.660Z,1028.81
2022-10-12T02:01:09.911Z,1028.78
2022-10-12T02:02:10.018Z,1028.78
2022-10-12T02:03:10.219Z,1028.77
2022-10-12T02:04:10.384Z,1028.75
2022-10-12T02:05:10.532Z,1028.74
2022-10-12T02:06:10.731Z,1028.73
2022-10-12T02:07:10.879Z,1028.70
2022-10-12T02:08:11.080Z,1028.72
2022-10-12T02:09:11.229Z,1028.73
2022-10-12T02:10:11.427Z,1028.72
2022-10-12T02:11:11.606Z,1028.73
2022-10-12T02:12:11.749Z,1028.71
2022-10-12T02:13:11.956Z,1028.70
2022-10-12T02:14:12.110Z,1028.71
2022-10-12T02:15:12.298Z,1028.64
2022-10-12T02:16:12.488Z,1028.66
2022-10-12T02:17:12.641Z,1028.65
2022-10-12T02:18:12.818Z,1028.64
2022-10-12T02:19:12.968Z,1028.63
2022-10-12T02:20:13.161Z,1028.62
2022-10-12T02:21:13.347Z,1028.65
2022-10-12T02:22:13.555Z,1028.62
2022-10-12T02:23:13.709Z,1028.58
2022-10-12T02:24:13.897Z,1028.62
2022-10-12T02:25:14.052Z,1028.61
2022-10-12T02:26:14.265Z,1028.62
2022-10-12T02:27:14.438Z,1028.61
2022-10-12T02:28:14.694Z,1028.61
2022-10-12T02:29:14.793Z,1028.61
2022-10-12T02:30:14.979Z,1028.61
2022-10-12T02:31:15.159Z,1028.59
2022-10-12T02:32:15.367Z,1028.59
2022-10-12T02:33:15.518Z,1028.56
2022-10-12T02:34:15.707Z,1028.56
2022-10-12T02:35:15.887Z,1028.55
2022-10-12T02:36:16.046Z,1028.53
2022-10-12T02:37:16.217Z,1028.55
2022-10-12T02:38:16.368Z,1028.55
2022-10-12T02:39:16.557Z,1028.54
2022-10-12T02:40:16.737Z,1028.56
2022-10-12T02:41:16.937Z,1028.52
2022-10-12T02:42:17.116Z,1028.51
2022-10-12T02:43:17.266Z,1028.50
2022-10-12T02:44:17.456Z,1028.52
2022-10-12T02:45:17.646Z,1028.49
2022-10-12T02:46:17.827Z,1028.47
2022-10-12T02:47:18.033Z,1028.45
2022-10-12T02:48:18.185Z,1028.45
2022-10-12T02:49:18.384Z,1028.47
2022-10-12T02:50:18.568Z,1028.45
2022-10-12T02:51:18.715Z,1028.45
2022-10-12T02:52:18.915Z,1028.47
2022-10-12T02:53:19.065Z,1028.45
2022-10-12T02:54:19.285Z,1028.45
2022-10-12T02:55:19.415Z,1028.46
2022-10-12T02:56:19.607Z,1028.45
2022-10-12T02:57:19.807Z,1028.47
2022-10-12T02:58:19.965Z,1028.48
2022-10-12T02:59:20.124Z,1028.45
2022-10-12T03:00:20.344Z,1028.46
2022-10-12T03:01:20.536Z,1028.47
2022-10-12T03:02:20.654Z,1028.49
2022-10-12T03:03:20.808Z,1028.49
2022-10-12T03:04:21.006Z,1028.46
2022-10-12T03:05:21.164Z,1028.48
2022-10-12T03:06:21.355Z,1028.48
2022-10-12T03:07:21.565Z,1028.49
2022-10-12T03:08:21.702Z,1028.48
2022-10-12T03:09:21.892Z,1028.44
2022-10-12T03:10:22.061Z,1028.46
2022-10-12T03:11:22.213Z,1028.43
2022-10-12T03:12:22.423Z,1028.45
2022-10-12T03:13:22.575Z,1028.44
2022-10-12T03:14:22.768Z,1028.40
2022-10-12T03:15:22.914Z,1028.43
2022-10-12T03:16:23.103Z,1028.40
2022-10-12T03:17:23.284Z,1028.43
2022-10-12T03:18:23.441Z,1028.44
2022-10-12T03:19:23.594Z,1028.45
2022-10-12T03:20:23.766Z,1028.41
2022-10-12T03:21:23.921Z,1028.42
2022-10-12T03:22:24.113Z,1028.41
2022-10-12T03:23:24.254Z,1028.43
2022-10-12T03:24:24.455Z,1028.42
2022-10-12T03:25:24.602Z,1028.39
2022-10-12T03:26:24.793Z,1028.40
2022-10-12T03:27:24.971Z,1028.38
2022-10-12T03:28:25.162Z,1028.36
2022-10-12T03:29:25.292Z,1028.35
2022-10-12T03:30:25.473Z,1028.36
2022-10-12T03:31:25.630Z,1028.36
2022-10-12T03:32:25.833Z,1028.38
2022-10-12T03:33:25.990Z,1028.35
2022-10-12T03:34:26.183Z,1028.32
2022-10-12T03:35:26.333Z,1028.34
2022-10-12T03:36:26.522Z,1028.35
2022-10-12T03:37:26.693Z,1028.31
2022-10-12T03:38:26.842Z,1028.31
2022-10-12T03:39:27.038Z,1028.34
2022-10-12T03:40:27.201Z,1028.41
2022-10-12T03:41:27.382Z,1028.37
2022-10-12T03:42:27.571Z,1028.41
2022-10-12T03:43:27.722Z,1028.35
2022-10-12T03:44:27.911Z,1028.36
2022-10-12T03:45:28.102Z,1028.36
2022-10-12T03:46:28.301Z,1028.34
2022-10-12T03:47:28.481Z,1028.39
2022-10-12T03:48:28.641Z,1028.36
2022-10-12T03:49:28.830Z,1028.36
2022-10-12T03:50:28.991Z,1028.35
2022-10-12T03:51:29.180Z,1028.34
2022-10-12T03:52:29.359Z,1028.34
2022-10-12T03:53:29.660Z,1028.35
2022-10-12T03:54:29.701Z,1028.37
2022-10-12T03:55:29.892Z,1028.37
2022-10-12T03:56:30.050Z,1028.41
2022-10-12T03:57:30.231Z,1028.42
2022-10-12T03:58:30.381Z,1028.43
2022-10-12T03:59:30.569Z,1028.37
2022-10-12T04:00:30.750Z,1028.42
2022-10-12T04:01:30.949Z,1028.44
2022-10-12T04:02:31.120Z,1028.43
2022-10-12T04:03:31.279Z,1028.44
2022-10-12T04:04:31.471Z,1028.41
2022-10-12T04:05:31.637Z,1028.42
2022-10-12T04:06:31.819Z,1028.39
2022-10-12T04:07:32.019Z,1028.41
2022-10-12T04:08:32.179Z,1028.42
2022-10-12T04:09:32.329Z,1028.37
2022-10-12T04:10:32.503Z,1028.37
2022-10-12T04:11:32.655Z,1028.38
2022-10-12T04:12:32.857Z,1028.39
2022-10-12T04:13:32.998Z,1028.40
2022-10-12T04:14:33.190Z,1028.40
2022-10-12T04:15:33.379Z,1028.41
2022-10-12T04:16:33.576Z,1028.45
2022-10-12T04:17:33.738Z,1028.46
2022-10-12T04:18:33.908Z,1028.49
2022-10-12T04:19:34.058Z,1028.51
2022-10-12T04:20:34.228Z,1028.54
2022-10-12T04:21:34.420Z,1028.52
2022-10-12T04:22:34.627Z,1028.53
2022-10-12T04:23:34.776Z,1028.50
2022-10-12T04:24:34.967Z,1028.48
2022-10-12T04:25:35.118Z,1028.45
2022-10-12T04:26:35.307Z,1028.51
2022-10-12T04:27:35.691Z,1028.49
2022-10-12T04:28:35.730Z,1028.53
2022-10-12T04:29:35.866Z,1028.53
2022-10-12T04:30:36.056Z,1028.53
2022-10-12T04:31:36.255Z,1028.55
2022-10-12T04:32:36.426Z,1028.52
2022-10-12T04:33:36.577Z,1028.52
2022-10-12T04:34:36.778Z,1028.53
2022-10-12T04:35:36.926Z,1028.51
2022-10-12T04:36:37.123Z,1028.49
2022-10-12T04:37:37.652Z,1028.47
2022-10-12T04:38:37.466Z,1028.46
2022-10-12T04:39:37.655Z,1028.50
2022-10-12T04:40:37.856Z,1028.46
2022-10-12T04:41:38.006Z,1028.50
2022-10-12T04:42:38.215Z,1028.50
2022-10-12T04:43:38.375Z,1028.52
2022-10-12T04:44:38.534Z,1028.54
2022-10-12T04:45:38.715Z,1028.55
2022-10-12T04:46:38.899Z,1028.55
2022-10-12T04:47:39.564Z,1028.58
2022-10-12T04:48:39.235Z,1028.55
2022-10-12T04:49:39.415Z,1028.53
2022-10-12T04:50:39.606Z,1028.59
2022-10-12T04:51:39.755Z,1028.58
2022-10-12T04:52:39.964Z,1028.56
2022-10-12T04:53:40.118Z,1028.57
2022-10-12T04:54:40.315Z,1028.59
2022-10-12T04:55:40.474Z,1028.57
2022-10-12T04:56:43.104Z,1028.58
2022-10-12T04:57:41.802Z,1028.60
2022-10-12T04:58:40.973Z,1028.59
2022-10-12T04:59:41.159Z,1028.60
2022-10-12T05:00:41.345Z,1028.59
2022-10-12T05:01:41.583Z,1028.57
2022-10-12T05:02:41.747Z,1028.57
2022-10-12T05:03:42.302Z,1028.57
2022-10-12T05:04:42.039Z,1028.58
2022-10-12T05:05:42.202Z,1028.57
2022-10-12T05:06:42.364Z,1028.57
2022-10-12T05:07:42.571Z,1028.56
2022-10-12T05:08:42.713Z,1028.58
2022-10-12T05:09:42.883Z,1028.56
2022-10-12T05:10:43.053Z,1028.57
2022-10-12T05:11:43.238Z,1028.59
2022-10-12T05:12:43.433Z,1028.60
2022-10-12T05:13:43.563Z,1028.60
2022-10-12T05:14:43.742Z,1028.60
2022-10-12T05:15:43.912Z,1028.62
2022-10-12T05:16:44.095Z,1028.61
2022-10-12T05:17:44.288Z,1028.58
2022-10-12T05:18:44.432Z,1028.60
2022-10-12T05:19:44.602Z,1028.59
2022-10-12T05:20:44.775Z,1028.58
2022-10-12T05:21:44.954Z,1028.57
2022-10-12T05:22:45.172Z,1028.54
2022-10-12T05:23:45.308Z,1028.54
2022-10-12T05:24:47.948Z,1028.56
2022-10-12T05:25:45.643Z,1028.54
2022-10-12T05:26:45.822Z,1028.55
2022-10-12T05:27:45.981Z,1028.56
2022-10-12T05:28:46.180Z,1028.53
2022-10-12T05:29:46.311Z,1028.55
2022-10-12T05:30:46.500Z,1028.57
2022-10-12T05:31:46.699Z,1028.56
2022-10-12T05:32:46.889Z,1028.56
2022-10-12T05:33:47.058Z,1028.55
2022-10-12T05:34:47.240Z,1028.58
2022-10-12T05:35:48.905Z,1028.62
2022-10-12T05:36:47.610Z,1028.58
2022-10-12T05:37:47.812Z,1028.61
2022-10-12T05:38:47.961Z,1028.63
2022-10-12T05:39:48.140Z,1028.63
2022-10-12T05:40:48.437Z,1028.63
2022-10-12T05:41:48.489Z,1028.61
2022-10-12T05:42:48.690Z,1028.64
2022-10-12T05:43:48.863Z,1028.66
2022-10-12T05:44:49.048Z,1028.66
2022-10-12T05:45:49.220Z,1028.65
2022-10-12T05:46:49.456Z,1028.69
2022-10-12T05:47:49.627Z,1028.71
2022-10-12T05:48:49.790Z,1028.65
2022-10-12T05:49:49.969Z,1028.66
2022-10-12T05:50:50.110Z,1028.67
2022-10-12T05:51:50.269Z,1028.66
2022-10-12T05:52:50.479Z,1028.67
2022-10-12T05:53:50.664Z,1028.64
2022-10-12T05:54:50.799Z,1028.65
2022-10-12T05:55:50.960Z,1028.66
2022-10-12T05:56:51.119Z,1028.67
2022-10-12T05:57:52.089Z,1028.66
2022-10-12T05:58:51.419Z,1028.67
2022-10-12T05:59:51.643Z,1028.67
2022-10-12T06:00:51.814Z,1028.68
2022-10-12T06:01:52.048Z,1028.67
2022-10-12T06:02:52.162Z,1028.71
2022-10-12T06:03:52.329Z,1028.70
2022-10-12T06:04:52.479Z,1028.73
2022-10-12T06:05:52.667Z,1028.75
2022-10-12T06:06:52.824Z,1028.74
2022-10-12T06:07:53.515Z,1028.69
2022-10-12T06:08:54.168Z,1028.73
2022-10-12T06:09:53.352Z,1028.69
2022-10-12T06:10:53.533Z,1028.72
2022-10-12T06:11:53.717Z,1028.70
2022-10-12T06:12:53.917Z,1028.74
2022-10-12T06:13:54.068Z,1028.76
2022-10-12T06:14:54.239Z,1028.76
2022-10-12T06:15:54.437Z,1028.78
2022-10-12T06:16:54.732Z,1028.76
2022-10-12T06:17:54.787Z,1028.74
2022-10-12T06:18:54.918Z,1028.76
2022-10-12T06:19:55.066Z,1028.76
2022-10-12T06:21:21.013Z,1028.76
2022-10-12T06:21:56.416Z,1028.77
2022-10-12T06:22:55.606Z,1028.78
2022-10-12T06:23:55.765Z,1028.80
2022-10-12T06:24:55.896Z,1028.82
2022-10-12T06:25:56.096Z,1028.81
2022-10-12T06:26:56.254Z,1028.83
2022-10-12T06:27:56.485Z,1028.80
2022-10-12T06:28:56.634Z,1028.81
2022-10-12T06:29:56.751Z,1028.82
2022-10-12T06:30:56.944Z,1028.82
2022-10-12T06:31:57.085Z,1028.83
2022-10-12T06:32:57.274Z,1028.85
2022-10-12T06:33:57.415Z,1028.87
2022-10-12T06:34:57.585Z,1028.86
2022-10-12T06:35:57.775Z,1028.85
2022-10-12T06:37:01.652Z,1028.86
2022-10-12T06:37:58.127Z,1028.84
2022-10-12T06:38:58.347Z,1028.84
2022-10-12T06:39:58.483Z,1028.86
2022-10-12T06:40:58.658Z,1028.84
2022-10-12T06:41:58.862Z,1028.82
2022-10-12T06:42:59.013Z,1028.78
2022-10-12T06:43:59.191Z,1028.81
2022-10-12T06:44:59.398Z,1028.81
2022-10-12T06:45:59.544Z,1028.86
2022-10-12T06:46:59.725Z,1028.83
2022-10-12T06:47:59.925Z,1028.82
2022-10-12T06:49:00.083Z,1028.81
2022-10-12T06:50:00.243Z,1028.86
2022-10-12T06:51:00.463Z,1028.81
2022-10-12T06:52:00.583Z,1028.83
2022-10-12T06:53:00.801Z,1028.83
2022-10-12T06:54:00.941Z,1028.87
2022-10-12T06:55:01.135Z,1028.88
2022-10-12T06:56:01.325Z,1028.84
2022-10-12T06:57:01.473Z,1028.87
2022-10-12T06:58:01.675Z,1028.84
2022-10-12T06:59:01.841Z,1028.84
2022-10-12T07:00:02.007Z,1028.85
2022-10-12T07:01:02.133Z,1028.84
2022-10-12T07:02:02.413Z,1028.85
2022-10-12T07:03:02.553Z,1028.88
2022-10-12T07:04:02.694Z,1028.88
2022-10-12T07:05:02.824Z,1028.85
2022-10-12T07:06:02.999Z,1028.91
2022-10-12T07:07:03.165Z,1028.88
2022-10-12T07:08:03.392Z,1028.91
2022-10-12T07:09:03.533Z,1028.88
2022-10-12T07:10:03.721Z,1028.85
2022-10-12T07:11:03.895Z,1028.88
2022-10-12T07:12:04.092Z,1028.85
2022-10-12T07:13:04.312Z,1028.82
2022-10-12T07:14:04.443Z,1028.86
2022-10-12T07:15:04.633Z,1028.90
2022-10-12T07:16:04.792Z,1028.88
2022-10-12T07:17:04.940Z,1028.87
2022-10-12T07:18:05.163Z,1028.85
2022-10-12T07:19:05.301Z,1028.84
2022-10-12T07:20:05.515Z,1028.83
2022-10-12T07:21:05.662Z,1028.83
2022-10-12T07:22:05.850Z,1028.85
2022-10-12T07:23:06.042Z,1028.85
2022-10-12T07:24:06.193Z,1028.84
2022-10-12T07:25:06.361Z,1028.85
2022-10-12T07:26:06.534Z,1028.85
2022-10-12T07:27:06.722Z,1028.90
2022-10-12T07:28:06.978Z,1028.90
2022-10-12T07:29:07.082Z,1028.90
2022-10-12T07:30:07.252Z,1028.91
2022-10-12T07:31:07.413Z,1028.79
2022-10-12T07:32:07.598Z,1028.83
2022-10-12T07:33:07.808Z,1028.82
2022-10-12T07:34:07.942Z,1028.88
2022-10-12T07:35:08.134Z,1028.83
2022-10-12T07:36:20.820Z,1028.81
2022-10-12T07:37:09.450Z,1028.83
2022-10-12T07:38:08.621Z,1028.83
2022-10-12T07:39:08.772Z,1028.85
2022-10-12T07:40:08.971Z,1028.82
2022-10-12T07:41:09.197Z,1028.83
2022-10-12T07:42:09.311Z,1028.86
2022-10-12T07:43:16.176Z,1028.87
2022-10-12T07:44:10.822Z,1028.84
2022-10-12T07:45:09.875Z,1028.87
2022-10-12T07:46:10.068Z,1028.87
2022-10-12T07:47:10.222Z,1028.86
2022-10-12T07:48:10.441Z,1028.82
2022-10-12T07:49:10.587Z,1028.79
2022-10-12T07:50:10.772Z,1028.73
2022-10-12T07:51:10.951Z,1028.78
2022-10-12T07:52:11.141Z,1028.78
2022-10-12T07:53:11.338Z,1028.79
2022-10-12T07:54:12.808Z,1028.76
2022-10-12T07:55:11.653Z,1028.74
2022-10-12T07:56:11.801Z,1028.75
2022-10-12T07:57:12.002Z,1028.72
2022-10-12T07:58:12.172Z,1028.75
2022-10-12T07:59:12.319Z,1028.71
2022-10-12T08:00:12.508Z,1028.71
2022-10-12T08:01:12.773Z,1028.70
2022-10-12T08:02:12.986Z,1028.72
2022-10-12T08:03:13.124Z,1028.70
2022-10-12T08:04:13.247Z,1028.65
2022-10-12T08:05:13.430Z,1028.69
2022-10-12T08:06:13.614Z,1028.66
2022-10-12T08:07:13.810Z,1028.69
2022-10-12T08:08:13.983Z,1028.65
2022-10-12T08:09:14.229Z,1028.67
2022-10-12T08:10:14.355Z,1028.60
2022-10-12T08:11:14.490Z,1028.63
2022-10-12T08:12:14.701Z,1028.57
2022-10-12T08:13:14.862Z,1028.54
2022-10-12T08:14:15.010Z,1028.53
2022-10-12T08:15:15.181Z,1028.57
2022-10-12T08:16:15.383Z,1028.55
2022-10-12T08:17:15.531Z,1028.49
2022-10-12T08:18:15.714Z,1028.50
2022-10-12T08:19:15.902Z,1028.52
2022-10-12T08:20:16.092Z,1028.56
2022-10-12T08:21:16.251Z,1028.50
2022-10-12T08:22:16.452Z,1028.51
2022-10-12T08:23:16.599Z,1028.41
2022-10-12T08:24:16.782Z,1028.40
2022-10-12T08:25:16.943Z,1028.42
2022-10-12T08:26:17.123Z,1028.40
2022-10-12T08:27:17.364Z,1028.48
2022-10-12T08:28:17.585Z,1028.47
2022-10-12T08:29:17.628Z,1028.45
2022-10-12T08:30:17.832Z,1028.48
2022-10-12T08:31:17.995Z,1028.45
2022-10-12T08:32:18.174Z,1028.44
2022-10-12T08:33:18.324Z,1028.44
2022-10-12T08:34:18.514Z,1028.39
2022-10-12T08:35:18.698Z,1028.41
2022-10-12T08:36:18.887Z,1028.43
2022-10-12T08:37:19.065Z,1028.38
2022-10-12T08:38:19.223Z,1028.40
2022-10-12T08:39:19.424Z,1028.38
2022-10-12T08:40:19.564Z,1028.39
2022-10-12T08:41:19.756Z,1028.40
2022-10-12T08:42:19.905Z,1028.35
2022-10-12T08:43:20.084Z,1028.35
2022-10-12T08:44:20.236Z,1028.32
2022-10-12T08:45:20.404Z,1028.33
2022-10-12T08:46:20.626Z,1028.33
2022-10-12T08:47:20.775Z,1028.36
2022-10-12T08:48:20.986Z,1028.35
2022-10-12T08:49:21.135Z,1028.36
2022-10-12T08:50:21.323Z,1028.35
2022-10-12T08:51:22.458Z,1028.32
2022-10-12T08:52:21.685Z,1028.33
2022-10-12T08:53:21.848Z,1028.30
2022-10-12T08:54:22.057Z,1028.30
2022-10-12T08:55:22.213Z,1028.28
2022-10-12T08:56:22.416Z,1028.27
2022-10-12T08:57:22.600Z,1028.26
2022-10-12T08:58:22.755Z,1028.21
2022-10-12T08:59:22.967Z,1028.25
2022-10-12T09:00:23.192Z,1028.22
2022-10-12T09:01:23.345Z,1028.23
2022-10-12T09:02:23.480Z,1028.22
2022-10-12T09:03:23.621Z,1028.24
2022-10-12T09:04:23.849Z,1028.19
2022-10-12T09:05:23.998Z,1028.14
2022-10-12T09:06:24.191Z,1028.15
2022-10-12T09:07:24.350Z,1028.12
2022-10-12T09:08:24.511Z,1028.05
2022-10-12T09:09:24.689Z,1028.07
2022-10-12T09:10:24.872Z,1028.00
2022-10-12T09:11:25.091Z,1028.02
2022-10-12T09:12:25.252Z,1028.01
2022-10-12T09:13:25.391Z,1027.95
2022-10-12T09:14:25.610Z,1027.99
2022-10-12T09:15:25.750Z,1027.99
2022-10-12T09:16:25.943Z,1028.01
2022-10-12T09:17:26.111Z,1027.99
2022-10-12T09:18:26.281Z,1027.98
2022-10-12T09:19:26.441Z,1027.99
2022-10-12T09:20:26.613Z,1027.95
2022-10-12T09:21:26.804Z,1027.96
2022-10-12T09:22:26.986Z,1027.95
2022-10-12T09:23:27.159Z,1027.90
2022-10-12T09:24:27.352Z,1027.92
2022-10-12T09:25:27.532Z,1027.96
2022-10-12T09:26:27.733Z,1027.91
2022-10-12T09:27:27.873Z,1027.89
2022-10-12T09:28:28.116Z,1027.91
2022-10-12T09:29:28.251Z,1027.98
2022-10-12T09:30:28.421Z,1027.92
2022-10-12T09:31:28.604Z,1027.96
2022-10-12T09:32:28.786Z,1027.94
2022-10-12T09:33:28.978Z,1027.96
2022-10-12T09:34:29.164Z,1027.90
2022-10-12T09:35:29.356Z,1027.92
2022-10-12T09:36:29.536Z,1027.86
2022-10-12T09:37:29.695Z,1027.82
2022-10-12T09:38:29.883Z,1027.83
2022-10-12T09:39:30.076Z,1027.83
2022-10-12T09:40:30.263Z,1027.81
2022-10-12T09:41:30.447Z,1027.83
2022-10-12T09:42:30.626Z,1027.82
2022-10-12T09:43:30.811Z,1027.83
2022-10-12T09:44:30.999Z,1027.80
2022-10-12T09:45:31.136Z,1027.86
2022-10-12T09:46:31.348Z,1027.80
2022-10-12T09:47:31.513Z,1027.80
2022-10-12T09:48:31.705Z,1027.82
2022-10-12T09:49:31.837Z,1027.80
2022-10-12T09:50:32.017Z,1027.86
2022-10-12T09:51:32.216Z,1027.87
2022-10-12T09:52:32.367Z,1027.88
2022-10-12T09:53:32.547Z,1027.80
2022-10-12T09:54:32.766Z,1027.89
2022-10-12T09:55:32.890Z,1027.88
2022-10-12T09:56:33.087Z,1027.86
2022-10-12T09:57:33.237Z,1027.88
2022-10-12T09:58:33.429Z,1027.88
2022-10-12T09:59:33.599Z,1027.88
2022-10-12T10:00:33.827Z,1027.82
2022-10-12T10:01:33.997Z,1027.88
2022-10-12T10:02:34.149Z,1027.91
2022-10-12T10:03:34.339Z,1027.92
2022-10-12T10:04:34.527Z,1027.93
2022-10-12T10:05:34.707Z,1027.89
2022-10-12T10:06:34.904Z,1027.88
2022-10-12T10:07:35.076Z,1027.92
2022-10-12T10:08:35.259Z,1027.86
2022-10-12T10:09:35.422Z,1027.88
2022-10-12T10:10:35.630Z,1027.89
2022-10-12T10:11:35.763Z,1027.89
2022-10-12T10:12:35.939Z,1027.90
2022-10-12T10:13:36.109Z,1027.90
2022-10-12T10:14:36.306Z,1027.88
2022-10-12T10:15:36.459Z,1027.83
2022-10-12T10:16:36.632Z,1027.88
2022-10-12T10:17:36.798Z,1027.84
2022-10-12T10:18:36.928Z,1027.86
2022-10-12T10:19:37.122Z,1027.81
2022-10-12T10:20:37.322Z,1027.85
2022-10-12T10:21:37.459Z,1027.91
2022-10-12T10:22:37.659Z,1027.89
2022-10-12T10:23:37.841Z,1027.87
2022-10-12T10:24:38.011Z,1027.86
2022-10-12T10:25:38.218Z,1027.83
2022-10-12T10:26:38.372Z,1027.81
2022-10-12T10:27:38.549Z,1027.84
2022-10-12T10:28:38.797Z,1027.78
2022-10-12T10:29:38.914Z,1027.78
2022-10-12T10:30:41.233Z,1027.79
2022-10-12T10:31:39.250Z,1027.80
2022-10-12T10:32:39.419Z,1027.75
2022-10-12T10:33:39.628Z,1027.81
2022-10-12T10:34:39.759Z,1027.83
2022-10-12T10:35:39.950Z,1027.81
2022-10-12T10:36:40.101Z,1027.87
2022-10-12T10:37:40.287Z,1027.82
2022-10-12T10:38:40.472Z,1027.81
2022-10-12T10:39:40.650Z,1027.79
2022-10-12T10:40:40.845Z,1027.82
2022-10-12T10:41:40.990Z,1027.86
2022-10-12T10:42:41.175Z,1027.83
2022-10-12T10:43:41.361Z,1027.82
2022-10-12T10:45:41.767Z,1027.81
2022-10-12T10:46:41.950Z,1027.85
2022-10-12T10:47:42.061Z,1027.81
2022-10-12T10:48:42.241Z,1027.78
2022-10-12T10:49:44.431Z,1027.82
2022-10-12T10:50:42.594Z,1027.83
2022-10-12T10:51:42.743Z,1027.81
2022-10-12T10:52:42.931Z,1027.79
2022-10-12T10:53:43.162Z,1027.84
2022-10-12T10:54:43.259Z,1027.77
2022-10-12T10:55:43.450Z,1027.75
2022-10-12T10:56:43.596Z,1027.73
2022-10-12T10:57:43.823Z,1027.70
2022-10-12T10:58:43.941Z,1027.72
2022-10-12T10:59:44.144Z,1027.71
2022-10-12T11:00:44.752Z,1027.68
2022-10-12T11:01:44.538Z,1027.70
2022-10-12T11:02:44.641Z,1027.67
2022-10-12T11:03:47.104Z,1027.66
2022-10-12T11:04:46.018Z,1027.70
2022-10-12T11:05:45.155Z,1027.70
2022-10-12T11:06:45.332Z,1027.66
2022-10-12T11:07:45.511Z,1027.63
2022-10-12T11:08:45.672Z,1027.61
2022-10-12T11:09:45.852Z,1027.57
2022-10-12T11:10:46.057Z,1027.56
2022-10-12T11:11:46.200Z,1027.53
2022-10-12T11:12:46.412Z,1027.50
2022-10-12T11:13:46.548Z,1027.49
2022-10-12T11:14:46.736Z,1027.46
2022-10-12T11:15:46.925Z,1027.50
2022-10-12T11:16:47.071Z,1027.45
2022-10-12T11:17:47.262Z,1027.46
2022-10-12T11:18:47.452Z,1027.44
2022-10-12T11:19:47.610Z,1027.41
2022-10-12T11:20:47.805Z,1027.40
2022-10-12T11:21:47.951Z,1027.36
2022-10-12T11:22:48.135Z,1027.40
2022-10-12T11:23:48.325Z,1027.32
2022-10-12T11:24:48.482Z,1027.34
2022-10-12T11:25:49.448Z,1027.31
2022-10-12T11:26:48.849Z,1027.32
2022-10-12T11:27:53.442Z,1027.29
2022-10-12T11:28:49.236Z,1027.31
2022-10-12T11:30:07.857Z,1027.26
2022-10-12T11:30:50.555Z,1027.30
2022-10-12T11:31:49.703Z,1027.26
2022-10-12T11:32:49.874Z,1027.27
2022-10-12T11:33:50.061Z,1027.26
2022-10-12T11:34:50.241Z,1027.22
2022-10-12T11:35:50.448Z,1027.22
2022-10-12T11:37:14.822Z,1027.20
2022-10-12T11:37:51.773Z,1027.18
2022-10-12T11:38:50.924Z,1027.15
2022-10-12T11:39:51.104Z,1027.15
2022-10-12T11:41:30.922Z,1027.17
2022-10-12T11:42:16.867Z,1027.12
2022-10-12T11:42:52.644Z,1027.16
2022-10-12T11:43:51.806Z,1027.14
2022-10-12T11:44:51.988Z,1027.12
2022-10-12T11:45:52.185Z,1027.07
2022-10-12T11:46:52.355Z,1027.10
2022-10-12T11:47:52.534Z,1027.07
2022-10-12T11:48:52.714Z,1027.07
2022-10-12T11:49:52.896Z,1027.06
2022-10-12T11:50:53.086Z,1027.03
2022-10-12T11:51:53.244Z,1027.05
2022-10-12T11:52:53.425Z,1026.97
2022-10-12T11:53:53.606Z,1027.00
2022-10-12T11:54:53.791Z,1026.96
2022-10-12T11:55:53.985Z,1026.99
2022-10-12T11:56:54.164Z,1026.94
2022-10-12T11:57:54.346Z,1026.98
2022-10-12T11:59:01.035Z,1026.91
2022-10-12T11:59:55.689Z,1026.90
2022-10-12T12:00:54.907Z,1026.88
2022-10-12T12:01:55.049Z,1026.86
2022-10-12T12:02:55.229Z,1026.84
2022-10-12T12:03:55.470Z,1026.89
2022-10-12T12:04:56.151Z,1026.81
2022-10-12T12:05:55.804Z,1026.82
2022-10-12T12:06:55.986Z,1026.77
2022-10-12T12:07:56.135Z,1026.85
2022-10-12T12:08:56.316Z,1026.77